sensor_id;sensor_type;location;lat;lon;timestamp;P1;durP1;ratioP1;P2;durP2;ratioP2
83429;SDS011;73362;50.952;6.952;2024-02-14T00:01:50;2.13;;;1.27;;
83429;SDS011;73362;50.952;6.952;2024-02-14T00:04:18;1.83;;;1.60;;
83429;SDS011;73362;50.952;6.952;2024-02-14T00:06:46;2.03;;;1.33;;
83429;SDS011;73362;50.952;6.952;2024-02-14T00:09:14;3.73;;;1.77;;
83429;SDS011;73362;50.952;6.952;2024-02-14T00:11:42;4.77;;;1.50;;
83429;SDS011;73362;50.952;6.952;2024-02-14T00:14:10;2.23;;;1.40;;
83429;SDS011;73362;50.952;6.952;2024-02-14T00:16:39;1.87;;;1.10;;
83429;SDS011;73362;50.952;6.952;2024-02-14T00:19:07;2.60;;;1.10;;
83429;SDS011;73362;50.952;6.952;2024-02-14T00:21:34;3.87;;;1.10;;
83429;SDS011;73362;50.952;6.952;2024-02-14T00:24:03;2.07;;;1.20;;
83429;SDS011;73362;50.952;6.952;2024-02-14T00:26:31;1.67;;;1.00;;
83429;SDS011;73362;50.952;6.952;2024-02-14T00:28:59;3.07;;;1.10;;
83429;SDS011;73362;50.952;6.952;2024-02-14T00:31:27;2.60;;;1.13;;
83429;SDS011;73362;50.952;6.952;2024-02-14T00:33:55;1.90;;;0.93;;
83429;SDS011;73362;50.952;6.952;2024-02-14T00:36:23;1.57;;;1.00;;
83429;SDS011;73362;50.952;6.952;2024-02-14T00:38:51;2.63;;;1.60;;
83429;SDS011;73362;50.952;6.952;2024-02-14T00:41:19;1.60;;;1.20;;
83429;SDS011;73362;50.952;6.952;2024-02-14T00:43:47;1.33;;;1.03;;
83429;SDS011;73362;50.952;6.952;2024-02-14T00:46:16;1.93;;;1.23;;
83429;SDS011;73362;50.952;6.952;2024-02-14T00:48:43;1.27;;;1.00;;
83429;SDS011;73362;50.952;6.952;2024-02-14T00:51:11;2.23;;;1.20;;
83429;SDS011;73362;50.952;6.952;2024-02-14T00:53:39;1.57;;;1.30;;
83429;SDS011;73362;50.952;6.952;2024-02-14T00:56:07;1.93;;;1.70;;
83429;SDS011;73362;50.952;6.952;2024-02-14T00:58:35;3.07;;;1.67;;
83429;SDS011;73362;50.952;6.952;2024-02-14T01:01:03;3.17;;;1.53;;
83429;SDS011;73362;50.952;6.952;2024-02-14T01:03:31;1.10;;;0.93;;
83429;SDS011;73362;50.952;6.952;2024-02-14T01:05:59;3.17;;;1.20;;
83429;SDS011;73362;50.952;6.952;2024-02-14T01:08:27;2.83;;;1.23;;
83429;SDS011;73362;50.952;6.952;2024-02-14T01:10:55;1.17;;;1.00;;
83429;SDS011;73362;50.952;6.952;2024-02-14T01:13:23;0.83;;;0.83;;
83429;SDS011;73362;50.952;6.952;2024-02-14T01:15:51;2.33;;;1.50;;
83429;SDS011;73362;50.952;6.952;2024-02-14T01:18:19;1.67;;;1.00;;
83429;SDS011;73362;50.952;6.952;2024-02-14T01:20:47;1.00;;;0.90;;
83429;SDS011;73362;50.952;6.952;2024-02-14T01:23:15;1.47;;;1.00;;
83429;SDS011;73362;50.952;6.952;2024-02-14T01:25:43;2.00;;;1.00;;
83429;SDS011;73362;50.952;6.952;2024-02-14T01:28:11;1.17;;;0.93;;
83429;SDS011;73362;50.952;6.952;2024-02-14T01:30:39;2.33;;;0.80;;
83429;SDS011;73362;50.952;6.952;2024-02-14T01:33:08;1.70;;;1.00;;
83429;SDS011;73362;50.952;6.952;2024-02-14T01:35:36;1.80;;;1.00;;
83429;SDS011;73362;50.952;6.952;2024-02-14T01:38:04;0.87;;;0.77;;
83429;SDS011;73362;50.952;6.952;2024-02-14T01:40:32;2.20;;;1.10;;
83429;SDS011;73362;50.952;6.952;2024-02-14T01:43:00;1.07;;;0.77;;
83429;SDS011;73362;50.952;6.952;2024-02-14T01:45:28;1.90;;;0.90;;
83429;SDS011;73362;50.952;6.952;2024-02-14T01:47:56;1.63;;;1.23;;
83429;SDS011;73362;50.952;6.952;2024-02-14T01:50:24;1.70;;;0.90;;
83429;SDS011;73362;50.952;6.952;2024-02-14T01:52:52;0.80;;;0.80;;
83429;SDS011;73362;50.952;6.952;2024-02-14T01:55:20;0.70;;;0.70;;
83429;SDS011;73362;50.952;6.952;2024-02-14T01:57:48;1.73;;;0.80;;
83429;SDS011;73362;50.952;6.952;2024-02-14T02:00:16;2.20;;;0.70;;
83429;SDS011;73362;50.952;6.952;2024-02-14T02:02:44;0.90;;;0.73;;
83429;SDS011;73362;50.952;6.952;2024-02-14T02:05:12;0.60;;;0.60;;
83429;SDS011;73362;50.952;6.952;2024-02-14T02:07:40;1.30;;;0.70;;
83429;SDS011;73362;50.952;6.952;2024-02-14T02:10:09;0.90;;;0.90;;
83429;SDS011;73362;50.952;6.952;2024-02-14T02:12:37;0.83;;;0.80;;
83429;SDS011;73362;50.952;6.952;2024-02-14T02:15:05;0.87;;;0.70;;
83429;SDS011;73362;50.952;6.952;2024-02-14T02:17:33;1.60;;;0.90;;
83429;SDS011;73362;50.952;6.952;2024-02-14T02:20:01;0.93;;;0.80;;
83429;SDS011;73362;50.952;6.952;2024-02-14T02:22:29;0.63;;;0.63;;
83429;SDS011;73362;50.952;6.952;2024-02-14T02:24:57;0.70;;;0.70;;
83429;SDS011;73362;50.952;6.952;2024-02-14T02:27:25;1.23;;;0.57;;
83429;SDS011;73362;50.952;6.952;2024-02-14T02:29:53;1.53;;;0.80;;
83429;SDS011;73362;50.952;6.952;2024-02-14T02:32:21;0.80;;;0.70;;
83429;SDS011;73362;50.952;6.952;2024-02-14T02:34:49;0.87;;;0.60;;
83429;SDS011;73362;50.952;6.952;2024-02-14T02:37:17;0.93;;;0.70;;
83429;SDS011;73362;50.952;6.952;2024-02-14T02:39:45;0.87;;;0.83;;
83429;SDS011;73362;50.952;6.952;2024-02-14T02:42:13;0.50;;;0.50;;
83429;SDS011;73362;50.952;6.952;2024-02-14T02:44:41;1.17;;;0.77;;
83429;SDS011;73362;50.952;6.952;2024-02-14T02:47:09;0.80;;;0.80;;
83429;SDS011;73362;50.952;6.952;2024-02-14T02:49:38;2.43;;;0.77;;
83429;SDS011;73362;50.952;6.952;2024-02-14T02:52:06;0.80;;;0.60;;
83429;SDS011;73362;50.952;6.952;2024-02-14T02:54:34;1.17;;;0.50;;
83429;SDS011;73362;50.952;6.952;2024-02-14T02:57:02;0.77;;;0.60;;
83429;SDS011;73362;50.952;6.952;2024-02-14T02:59:30;1.13;;;0.70;;
83429;SDS011;73362;50.952;6.952;2024-02-14T03:01:58;1.23;;;0.87;;
83429;SDS011;73362;50.952;6.952;2024-02-14T03:04:26;1.50;;;0.97;;
83429;SDS011;73362;50.952;6.952;2024-02-14T03:06:55;0.63;;;0.63;;
83429;SDS011;73362;50.952;6.952;2024-02-14T03:09:23;1.10;;;0.93;;
83429;SDS011;73362;50.952;6.952;2024-02-14T03:11:51;1.57;;;1.40;;
83429;SDS011;73362;50.952;6.952;2024-02-14T03:14:19;1.47;;;0.70;;
83429;SDS011;73362;50.952;6.952;2024-02-14T03:16:47;1.33;;;0.80;;
83429;SDS011;73362;50.952;6.952;2024-02-14T03:19:15;0.73;;;0.70;;
83429;SDS011;73362;50.952;6.952;2024-02-14T03:21:43;0.80;;;0.77;;
83429;SDS011;73362;50.952;6.952;2024-02-14T03:24:11;0.93;;;0.70;;
83429;SDS011;73362;50.952;6.952;2024-02-14T03:26:39;1.33;;;1.00;;
83429;SDS011;73362;50.952;6.952;2024-02-14T03:29:07;0.80;;;0.80;;
83429;SDS011;73362;50.952;6.952;2024-02-14T03:31:35;1.67;;;0.70;;
83429;SDS011;73362;50.952;6.952;2024-02-14T03:34:03;0.97;;;0.73;;
83429;SDS011;73362;50.952;6.952;2024-02-14T03:36:31;1.60;;;0.70;;
83429;SDS011;73362;50.952;6.952;2024-02-14T03:38:59;1.00;;;0.50;;
83429;SDS011;73362;50.952;6.952;2024-02-14T03:41:27;1.07;;;0.70;;
83429;SDS011;73362;50.952;6.952;2024-02-14T03:43:55;0.60;;;0.60;;
83429;SDS011;73362;50.952;6.952;2024-02-14T03:46:24;1.40;;;0.80;;
83429;SDS011;73362;50.952;6.952;2024-02-14T03:48:52;1.60;;;0.60;;
83429;SDS011;73362;50.952;6.952;2024-02-14T03:51:20;0.83;;;0.70;;
83429;SDS011;73362;50.952;6.952;2024-02-14T03:53:48;1.27;;;0.90;;
83429;SDS011;73362;50.952;6.952;2024-02-14T03:56:16;0.87;;;0.87;;
83429;SDS011;73362;50.952;6.952;2024-02-14T03:58:44;0.70;;;0.70;;
83429;SDS011;73362;50.952;6.952;2024-02-14T04:01:12;1.07;;;0.70;;
83429;SDS011;73362;50.952;6.952;2024-02-14T04:03:40;0.83;;;0.70;;
83429;SDS011;73362;50.952;6.952;2024-02-14T04:06:08;0.80;;;0.80;;
83429;SDS011;73362;50.952;6.952;2024-02-14T04:08:36;1.13;;;0.70;;
83429;SDS011;73362;50.952;6.952;2024-02-14T04:11:04;1.33;;;0.67;;
83429;SDS011;73362;50.952;6.952;2024-02-14T04:13:32;0.57;;;0.57;;
83429;SDS011;73362;50.952;6.952;2024-02-14T04:16:00;1.33;;;0.60;;
83429;SDS011;73362;50.952;6.952;2024-02-14T04:18:28;1.20;;;0.70;;
83429;SDS011;73362;50.952;6.952;2024-02-14T04:20:56;0.60;;;0.60;;
83429;SDS011;73362;50.952;6.952;2024-02-14T04:23:24;0.60;;;0.60;;
83429;SDS011;73362;50.952;6.952;2024-02-14T04:25:52;0.77;;;0.77;;
83429;SDS011;73362;50.952;6.952;2024-02-14T04:28:20;0.80;;;0.80;;
83429;SDS011;73362;50.952;6.952;2024-02-14T04:30:48;1.03;;;0.93;;
83429;SDS011;73362;50.952;6.952;2024-02-14T04:33:16;1.10;;;0.80;;
83429;SDS011;73362;50.952;6.952;2024-02-14T04:35:44;1.93;;;1.10;;
83429;SDS011;73362;50.952;6.952;2024-02-14T04:38:12;1.10;;;1.00;;
83429;SDS011;73362;50.952;6.952;2024-02-14T04:40:40;1.30;;;1.20;;
83429;SDS011;73362;50.952;6.952;2024-02-14T04:43:08;2.30;;;2.10;;
83429;SDS011;73362;50.952;6.952;2024-02-14T04:45:36;1.40;;;1.30;;
83429;SDS011;73362;50.952;6.952;2024-02-14T04:48:04;1.43;;;1.20;;
83429;SDS011;73362;50.952;6.952;2024-02-14T04:50:33;1.77;;;1.20;;
83429;SDS011;73362;50.952;6.952;2024-02-14T04:53:01;1.07;;;1.07;;
83429;SDS011;73362;50.952;6.952;2024-02-14T04:55:29;1.50;;;1.27;;
83429;SDS011;73362;50.952;6.952;2024-02-14T04:57:57;2.47;;;1.20;;
83429;SDS011;73362;50.952;6.952;2024-02-14T05:00:25;1.30;;;1.20;;
83429;SDS011;73362;50.952;6.952;2024-02-14T05:02:53;1.50;;;0.90;;
83429;SDS011;73362;50.952;6.952;2024-02-14T05:05:21;1.23;;;1.10;;
83429;SDS011;73362;50.952;6.952;2024-02-14T05:07:49;1.10;;;1.00;;
83429;SDS011;73362;50.952;6.952;2024-02-14T05:10:17;1.00;;;0.90;;
83429;SDS011;73362;50.952;6.952;2024-02-14T05:12:45;2.63;;;1.00;;
83429;SDS011;73362;50.952;6.952;2024-02-14T05:15:13;2.23;;;1.00;;
83429;SDS011;73362;50.952;6.952;2024-02-14T05:17:42;2.23;;;1.87;;
83429;SDS011;73362;50.952;6.952;2024-02-14T05:20:10;3.47;;;1.17;;
83429;SDS011;73362;50.952;6.952;2024-02-14T05:22:38;1.17;;;0.83;;
83429;SDS011;73362;50.952;6.952;2024-02-14T05:25:06;1.77;;;1.07;;
83429;SDS011;73362;50.952;6.952;2024-02-14T05:27:35;1.87;;;1.03;;
83429;SDS011;73362;50.952;6.952;2024-02-14T05:30:03;1.03;;;0.93;;
83429;SDS011;73362;50.952;6.952;2024-02-14T05:32:32;1.27;;;1.17;;
83429;SDS011;73362;50.952;6.952;2024-02-14T05:34:59;2.57;;;1.23;;
83429;SDS011;73362;50.952;6.952;2024-02-14T05:37:28;2.50;;;1.27;;
83429;SDS011;73362;50.952;6.952;2024-02-14T05:39:55;2.40;;;1.07;;
83429;SDS011;73362;50.952;6.952;2024-02-14T05:42:23;1.77;;;1.30;;
83429;SDS011;73362;50.952;6.952;2024-02-14T05:44:51;1.20;;;0.83;;
83429;SDS011;73362;50.952;6.952;2024-02-14T05:47:19;1.10;;;1.00;;
83429;SDS011;73362;50.952;6.952;2024-02-14T05:49:48;1.10;;;0.90;;
83429;SDS011;73362;50.952;6.952;2024-02-14T05:52:16;1.27;;;1.17;;
83429;SDS011;73362;50.952;6.952;2024-02-14T05:54:44;1.67;;;1.10;;
83429;SDS011;73362;50.952;6.952;2024-02-14T05:57:12;1.10;;;1.00;;
83429;SDS011;73362;50.952;6.952;2024-02-14T05:59:40;1.37;;;1.17;;
83429;SDS011;73362;50.952;6.952;2024-02-14T06:02:08;2.00;;;1.60;;
83429;SDS011;73362;50.952;6.952;2024-02-14T06:04:36;2.37;;;1.13;;
83429;SDS011;73362;50.952;6.952;2024-02-14T06:07:04;1.57;;;1.30;;
83429;SDS011;73362;50.952;6.952;2024-02-14T06:09:33;2.43;;;1.43;;
83429;SDS011;73362;50.952;6.952;2024-02-14T06:12:01;1.63;;;1.50;;
83429;SDS011;73362;50.952;6.952;2024-02-14T06:14:29;1.90;;;1.60;;
83429;SDS011;73362;50.952;6.952;2024-02-14T06:16:57;1.57;;;1.30;;
83429;SDS011;73362;50.952;6.952;2024-02-14T06:19:25;3.33;;;1.50;;
83429;SDS011;73362;50.952;6.952;2024-02-14T06:21:53;2.70;;;1.27;;
83429;SDS011;73362;50.952;6.952;2024-02-14T06:24:21;1.97;;;1.20;;
83429;SDS011;73362;50.952;6.952;2024-02-14T06:26:49;1.50;;;1.40;;
83429;SDS011;73362;50.952;6.952;2024-02-14T06:29:17;1.47;;;1.30;;
83429;SDS011;73362;50.952;6.952;2024-02-14T06:31:45;1.20;;;1.10;;
83429;SDS011;73362;50.952;6.952;2024-02-14T06:34:13;2.90;;;1.43;;
83429;SDS011;73362;50.952;6.952;2024-02-14T06:36:41;3.30;;;1.77;;
83429;SDS011;73362;50.952;6.952;2024-02-14T06:39:09;1.40;;;1.27;;
83429;SDS011;73362;50.952;6.952;2024-02-14T06:41:37;2.50;;;1.57;;
83429;SDS011;73362;50.952;6.952;2024-02-14T06:44:05;1.57;;;1.20;;
83429;SDS011;73362;50.952;6.952;2024-02-14T06:46:33;1.93;;;1.30;;
83429;SDS011;73362;50.952;6.952;2024-02-14T06:49:01;1.20;;;1.10;;
83429;SDS011;73362;50.952;6.952;2024-02-14T06:51:29;2.57;;;1.20;;
83429;SDS011;73362;50.952;6.952;2024-02-14T06:53:57;2.73;;;1.37;;
83429;SDS011;73362;50.952;6.952;2024-02-14T06:56:25;1.57;;;1.10;;
83429;SDS011;73362;50.952;6.952;2024-02-14T06:58:53;1.20;;;1.10;;
83429;SDS011;73362;50.952;6.952;2024-02-14T07:01:21;2.13;;;1.17;;
83429;SDS011;73362;50.952;6.952;2024-02-14T07:03:49;2.13;;;1.63;;
83429;SDS011;73362;50.952;6.952;2024-02-14T07:06:18;3.20;;;1.70;;
83429;SDS011;73362;50.952;6.952;2024-02-14T07:08:46;3.80;;;1.80;;
83429;SDS011;73362;50.952;6.952;2024-02-14T07:11:14;4.30;;;1.70;;
83429;SDS011;73362;50.952;6.952;2024-02-14T07:13:42;2.10;;;1.57;;
83429;SDS011;73362;50.952;6.952;2024-02-14T07:16:10;2.47;;;1.50;;
83429;SDS011;73362;50.952;6.952;2024-02-14T07:18:38;2.67;;;1.60;;
83429;SDS011;73362;50.952;6.952;2024-02-14T07:21:06;1.93;;;1.40;;
83429;SDS011;73362;50.952;6.952;2024-02-14T07:23:34;2.37;;;1.23;;
83429;SDS011;73362;50.952;6.952;2024-02-14T07:26:02;1.80;;;1.10;;
83429;SDS011;73362;50.952;6.952;2024-02-14T07:28:30;4.03;;;1.50;;
83429;SDS011;73362;50.952;6.952;2024-02-14T07:30:58;2.33;;;1.00;;
83429;SDS011;73362;50.952;6.952;2024-02-14T07:33:26;4.43;;;1.20;;
83429;SDS011;73362;50.952;6.952;2024-02-14T07:35:54;2.60;;;1.30;;
83429;SDS011;73362;50.952;6.952;2024-02-14T07:38:23;1.23;;;1.10;;
83429;SDS011;73362;50.952;6.952;2024-02-14T07:40:52;2.93;;;1.50;;
83429;SDS011;73362;50.952;6.952;2024-02-14T07:43:19;1.60;;;1.03;;
83429;SDS011;73362;50.952;6.952;2024-02-14T07:45:48;2.63;;;1.10;;
83429;SDS011;73362;50.952;6.952;2024-02-14T07:48:16;1.20;;;1.10;;
83429;SDS011;73362;50.952;6.952;2024-02-14T07:50:44;1.70;;;1.30;;
83429;SDS011;73362;50.952;6.952;2024-02-14T07:53:13;1.57;;;1.10;;
83429;SDS011;73362;50.952;6.952;2024-02-14T07:55:40;1.33;;;1.00;;
83429;SDS011;73362;50.952;6.952;2024-02-14T07:58:08;0.97;;;0.93;;
83429;SDS011;73362;50.952;6.952;2024-02-14T08:00:37;1.33;;;1.00;;
83429;SDS011;73362;50.952;6.952;2024-02-14T08:03:05;2.13;;;1.00;;
83429;SDS011;73362;50.952;6.952;2024-02-14T08:05:33;1.00;;;0.90;;
83429;SDS011;73362;50.952;6.952;2024-02-14T08:08:01;1.90;;;1.03;;
83429;SDS011;73362;50.952;6.952;2024-02-14T08:10:29;1.47;;;1.13;;
83429;SDS011;73362;50.952;6.952;2024-02-14T08:12:57;1.67;;;1.10;;
83429;SDS011;73362;50.952;6.952;2024-02-14T08:15:25;2.13;;;1.00;;
83429;SDS011;73362;50.952;6.952;2024-02-14T08:17:53;2.03;;;1.47;;
83429;SDS011;73362;50.952;6.952;2024-02-14T08:20:22;2.13;;;1.30;;
83429;SDS011;73362;50.952;6.952;2024-02-14T08:22:49;2.03;;;1.13;;
83429;SDS011;73362;50.952;6.952;2024-02-14T08:25:17;2.73;;;1.20;;
83429;SDS011;73362;50.952;6.952;2024-02-14T08:27:45;2.37;;;0.97;;
83429;SDS011;73362;50.952;6.952;2024-02-14T08:30:14;0.93;;;0.90;;
83429;SDS011;73362;50.952;6.952;2024-02-14T08:32:42;1.10;;;1.00;;
83429;SDS011;73362;50.952;6.952;2024-02-14T08:35:10;4.33;;;1.30;;
83429;SDS011;73362;50.952;6.952;2024-02-14T08:37:38;2.17;;;1.20;;
83429;SDS011;73362;50.952;6.952;2024-02-14T08:40:07;2.07;;;1.20;;
83429;SDS011;73362;50.952;6.952;2024-02-14T08:42:35;2.93;;;1.20;;
83429;SDS011;73362;50.952;6.952;2024-02-14T08:45:03;2.60;;;1.37;;
83429;SDS011;73362;50.952;6.952;2024-02-14T08:47:31;2.60;;;1.20;;
83429;SDS011;73362;50.952;6.952;2024-02-14T08:49:59;5.03;;;1.87;;
83429;SDS011;73362;50.952;6.952;2024-02-14T08:52:27;1.60;;;1.43;;
83429;SDS011;73362;50.952;6.952;2024-02-14T08:54:55;2.03;;;1.30;;
83429;SDS011;73362;50.952;6.952;2024-02-14T08:57:23;2.27;;;1.70;;
83429;SDS011;73362;50.952;6.952;2024-02-14T08:59:51;1.37;;;1.20;;
83429;SDS011;73362;50.952;6.952;2024-02-14T09:02:19;1.73;;;1.20;;
83429;SDS011;73362;50.952;6.952;2024-02-14T09:04:47;2.77;;;1.53;;
83429;SDS011;73362;50.952;6.952;2024-02-14T09:07:15;2.80;;;1.30;;
83429;SDS011;73362;50.952;6.952;2024-02-14T09:09:44;2.97;;;1.40;;
83429;SDS011;73362;50.952;6.952;2024-02-14T09:12:12;2.50;;;1.40;;
83429;SDS011;73362;50.952;6.952;2024-02-14T09:14:40;4.07;;;1.30;;
83429;SDS011;73362;50.952;6.952;2024-02-14T09:17:08;1.80;;;1.40;;
83429;SDS011;73362;50.952;6.952;2024-02-14T09:19:36;2.43;;;1.40;;
83429;SDS011;73362;50.952;6.952;2024-02-14T09:22:04;2.57;;;1.47;;
83429;SDS011;73362;50.952;6.952;2024-02-14T09:24:32;2.73;;;1.30;;
83429;SDS011;73362;50.952;6.952;2024-02-14T09:27:01;3.77;;;1.30;;
83429;SDS011;73362;50.952;6.952;2024-02-14T09:29:29;2.87;;;1.63;;
83429;SDS011;73362;50.952;6.952;2024-02-14T09:31:57;2.53;;;1.30;;
83429;SDS011;73362;50.952;6.952;2024-02-14T09:34:25;2.43;;;1.60;;
83429;SDS011;73362;50.952;6.952;2024-02-14T09:36:53;2.57;;;1.20;;
83429;SDS011;73362;50.952;6.952;2024-02-14T09:39:21;3.13;;;1.40;;
83429;SDS011;73362;50.952;6.952;2024-02-14T09:41:51;2.20;;;1.13;;
83429;SDS011;73362;50.952;6.952;2024-02-14T09:44:20;2.47;;;1.20;;
83429;SDS011;73362;50.952;6.952;2024-02-14T09:46:47;2.30;;;1.20;;
83429;SDS011;73362;50.952;6.952;2024-02-14T09:49:16;1.20;;;1.03;;
83429;SDS011;73362;50.952;6.952;2024-02-14T09:51:44;2.27;;;1.20;;
83429;SDS011;73362;50.952;6.952;2024-02-14T09:54:11;2.07;;;1.37;;
83429;SDS011;73362;50.952;6.952;2024-02-14T09:56:39;4.33;;;1.20;;
83429;SDS011;73362;50.952;6.952;2024-02-14T09:59:07;4.00;;;1.60;;
83429;SDS011;73362;50.952;6.952;2024-02-14T10:01:35;3.03;;;0.90;;
83429;SDS011;73362;50.952;6.952;2024-02-14T10:09:23;2.33;;;0.80;;
83429;SDS011;73362;50.952;6.952;2024-02-14T10:11:51;2.40;;;1.30;;
83429;SDS011;73362;50.952;6.952;2024-02-14T10:14:19;6.10;;;0.90;;
83429;SDS011;73362;50.952;6.952;2024-02-14T10:16:47;2.17;;;1.00;;
83429;SDS011;73362;50.952;6.952;2024-02-14T10:19:16;3.37;;;0.90;;
83429;SDS011;73362;50.952;6.952;2024-02-14T10:21:54;6.67;;;1.10;;
83429;SDS011;73362;50.952;6.952;2024-02-14T10:24:12;4.00;;;1.07;;
83429;SDS011;73362;50.952;6.952;2024-02-14T10:26:40;2.67;;;1.00;;
83429;SDS011;73362;50.952;6.952;2024-02-14T10:29:08;2.37;;;0.90;;
83429;SDS011;73362;50.952;6.952;2024-02-14T10:31:36;1.47;;;0.97;;
83429;SDS011;73362;50.952;6.952;2024-02-14T10:34:05;3.47;;;2.17;;
83429;SDS011;73362;50.952;6.952;2024-02-14T10:36:33;2.20;;;1.20;;
83429;SDS011;73362;50.952;6.952;2024-02-14T10:39:01;2.83;;;1.10;;
83429;SDS011;73362;50.952;6.952;2024-02-14T10:41:30;1.40;;;0.93;;
83429;SDS011;73362;50.952;6.952;2024-02-14T10:43:57;0.70;;;0.70;;
83429;SDS011;73362;50.952;6.952;2024-02-14T10:46:25;3.03;;;1.20;;
83429;SDS011;73362;50.952;6.952;2024-02-14T10:48:54;3.47;;;1.40;;
83429;SDS011;73362;50.952;6.952;2024-02-14T10:51:21;3.17;;;1.40;;
83429;SDS011;73362;50.952;6.952;2024-02-14T10:53:50;4.03;;;1.27;;
83429;SDS011;73362;50.952;6.952;2024-02-14T10:56:18;3.03;;;1.30;;
83429;SDS011;73362;50.952;6.952;2024-02-14T10:58:48;5.10;;;1.30;;
83429;SDS011;73362;50.952;6.952;2024-02-14T11:01:16;1.97;;;1.00;;
83429;SDS011;73362;50.952;6.952;2024-02-14T11:03:44;4.00;;;1.17;;
83429;SDS011;73362;50.952;6.952;2024-02-14T11:06:15;2.73;;;0.90;;
83429;SDS011;73362;50.952;6.952;2024-02-14T11:08:42;2.23;;;1.03;;
83429;SDS011;73362;50.952;6.952;2024-02-14T11:11:11;1.30;;;0.83;;
83429;SDS011;73362;50.952;6.952;2024-02-14T11:13:38;5.57;;;1.00;;
83429;SDS011;73362;50.952;6.952;2024-02-14T11:16:08;4.10;;;1.03;;
83429;SDS011;73362;50.952;6.952;2024-02-14T11:18:34;2.83;;;0.83;;
83429;SDS011;73362;50.952;6.952;2024-02-14T11:21:03;2.70;;;1.00;;
83429;SDS011;73362;50.952;6.952;2024-02-14T11:23:32;3.00;;;0.90;;
83429;SDS011;73362;50.952;6.952;2024-02-14T11:26:00;3.53;;;1.27;;
83429;SDS011;73362;50.952;6.952;2024-02-14T11:28:31;3.40;;;1.10;;
83429;SDS011;73362;50.952;6.952;2024-02-14T11:31:00;0.80;;;0.80;;
83429;SDS011;73362;50.952;6.952;2024-02-14T11:33:28;3.27;;;1.10;;
83429;SDS011;73362;50.952;6.952;2024-02-14T11:35:56;2.37;;;1.30;;
83429;SDS011;73362;50.952;6.952;2024-02-14T11:38:24;1.53;;;0.90;;
83429;SDS011;73362;50.952;6.952;2024-02-14T11:40:54;2.07;;;1.10;;
83429;SDS011;73362;50.952;6.952;2024-02-14T11:43:22;2.33;;;1.10;;
83429;SDS011;73362;50.952;6.952;2024-02-14T11:45:50;3.33;;;1.17;;
83429;SDS011;73362;50.952;6.952;2024-02-14T11:48:18;8.30;;;1.33;;
83429;SDS011;73362;50.952;6.952;2024-02-14T11:50:46;2.63;;;1.10;;
83429;SDS011;73362;50.952;6.952;2024-02-14T11:53:15;3.00;;;1.07;;
83429;SDS011;73362;50.952;6.952;2024-02-14T11:55:43;1.30;;;1.10;;
83429;SDS011;73362;50.952;6.952;2024-02-14T11:58:12;1.37;;;0.83;;
83429;SDS011;73362;50.952;6.952;2024-02-14T12:00:40;2.27;;;0.87;;
83429;SDS011;73362;50.952;6.952;2024-02-14T12:03:09;1.10;;;0.60;;
83429;SDS011;73362;50.952;6.952;2024-02-14T12:05:36;1.20;;;0.80;;
83429;SDS011;73362;50.952;6.952;2024-02-14T12:08:05;2.87;;;0.97;;
83429;SDS011;73362;50.952;6.952;2024-02-14T12:10:35;1.23;;;0.80;;
83429;SDS011;73362;50.952;6.952;2024-02-14T12:13:08;1.13;;;0.90;;
83429;SDS011;73362;50.952;6.952;2024-02-14T12:15:37;1.93;;;0.83;;
83429;SDS011;73362;50.952;6.952;2024-02-14T12:18:04;2.80;;;0.70;;
83429;SDS011;73362;50.952;6.952;2024-02-14T12:20:32;0.80;;;0.73;;
83429;SDS011;73362;50.952;6.952;2024-02-14T12:23:00;1.23;;;0.80;;
83429;SDS011;73362;50.952;6.952;2024-02-14T12:25:30;1.53;;;0.50;;
83429;SDS011;73362;50.952;6.952;2024-02-14T12:27:58;1.60;;;0.50;;
83429;SDS011;73362;50.952;6.952;2024-02-14T12:33:00;5.83;;;0.90;;
83429;SDS011;73362;50.952;6.952;2024-02-14T12:35:28;2.70;;;0.90;;
83429;SDS011;73362;50.952;6.952;2024-02-14T12:37:56;2.97;;;0.80;;
83429;SDS011;73362;50.952;6.952;2024-02-14T12:40:24;0.93;;;0.60;;
83429;SDS011;73362;50.952;6.952;2024-02-14T12:42:52;3.87;;;1.10;;
83429;SDS011;73362;50.952;6.952;2024-02-14T12:45:20;1.00;;;0.90;;
83429;SDS011;73362;50.952;6.952;2024-02-14T12:47:49;2.37;;;1.07;;
83429;SDS011;73362;50.952;6.952;2024-02-14T12:50:17;1.90;;;1.10;;
83429;SDS011;73362;50.952;6.952;2024-02-14T12:52:47;1.43;;;0.80;;
83429;SDS011;73362;50.952;6.952;2024-02-14T12:55:15;1.80;;;0.90;;
83429;SDS011;73362;50.952;6.952;2024-02-14T12:57:43;0.70;;;0.70;;
83429;SDS011;73362;50.952;6.952;2024-02-14T13:00:11;2.73;;;0.80;;
83429;SDS011;73362;50.952;6.952;2024-02-14T13:02:39;1.30;;;0.60;;
83429;SDS011;73362;50.952;6.952;2024-02-14T13:05:07;1.17;;;0.80;;
83429;SDS011;73362;50.952;6.952;2024-02-14T13:07:35;1.87;;;1.37;;
83429;SDS011;73362;50.952;6.952;2024-02-14T13:10:03;2.57;;;1.67;;
83429;SDS011;73362;50.952;6.952;2024-02-14T13:12:31;0.70;;;0.70;;
83429;SDS011;73362;50.952;6.952;2024-02-14T13:14:59;1.90;;;0.90;;
83429;SDS011;73362;50.952;6.952;2024-02-14T13:17:27;1.53;;;0.70;;
83429;SDS011;73362;50.952;6.952;2024-02-14T13:19:55;1.97;;;0.80;;
83429;SDS011;73362;50.952;6.952;2024-02-14T13:22:23;2.03;;;0.77;;
83429;SDS011;73362;50.952;6.952;2024-02-14T13:24:52;1.00;;;0.80;;
83429;SDS011;73362;50.952;6.952;2024-02-14T13:27:20;1.50;;;1.03;;
83429;SDS011;73362;50.952;6.952;2024-02-14T13:29:48;0.57;;;0.57;;
83429;SDS011;73362;50.952;6.952;2024-02-14T13:32:16;1.17;;;0.50;;
83429;SDS011;73362;50.952;6.952;2024-02-14T13:34:44;0.60;;;0.60;;
83429;SDS011;73362;50.952;6.952;2024-02-14T13:37:12;0.30;;;0.30;;
83429;SDS011;73362;50.952;6.952;2024-02-14T13:39:40;0.50;;;0.50;;
83429;SDS011;73362;50.952;6.952;2024-02-14T13:42:08;0.50;;;0.50;;
83429;SDS011;73362;50.952;6.952;2024-02-14T13:44:36;0.93;;;0.77;;
83429;SDS011;73362;50.952;6.952;2024-02-14T13:47:04;4.90;;;0.70;;
83429;SDS011;73362;50.952;6.952;2024-02-14T13:49:32;0.67;;;0.60;;
83429;SDS011;73362;50.952;6.952;2024-02-14T13:52:00;1.20;;;0.80;;
83429;SDS011;73362;50.952;6.952;2024-02-14T13:54:28;1.33;;;0.90;;
83429;SDS011;73362;50.952;6.952;2024-02-14T13:56:56;0.50;;;0.50;;
83429;SDS011;73362;50.952;6.952;2024-02-14T13:59:24;0.50;;;0.50;;
83429;SDS011;73362;50.952;6.952;2024-02-14T14:01:52;0.60;;;0.60;;
83429;SDS011;73362;50.952;6.952;2024-02-14T14:04:20;2.10;;;0.93;;
83429;SDS011;73362;50.952;6.952;2024-02-14T14:06:48;0.97;;;0.93;;
83429;SDS011;73362;50.952;6.952;2024-02-14T14:09:16;2.20;;;1.27;;
83429;SDS011;73362;50.952;6.952;2024-02-14T14:11:44;2.50;;;1.30;;
83429;SDS011;73362;50.952;6.952;2024-02-14T14:14:12;3.93;;;1.10;;
83429;SDS011;73362;50.952;6.952;2024-02-14T14:16:40;1.53;;;1.03;;
83429;SDS011;73362;50.952;6.952;2024-02-14T14:19:08;1.37;;;0.90;;
83429;SDS011;73362;50.952;6.952;2024-02-14T14:21:36;1.80;;;0.80;;
83429;SDS011;73362;50.952;6.952;2024-02-14T14:24:05;1.43;;;1.00;;
83429;SDS011;73362;50.952;6.952;2024-02-14T14:26:33;1.13;;;0.73;;
83429;SDS011;73362;50.952;6.952;2024-02-14T14:29:01;1.57;;;0.90;;
83429;SDS011;73362;50.952;6.952;2024-02-14T14:31:29;1.03;;;0.90;;
83429;SDS011;73362;50.952;6.952;2024-02-14T14:33:57;5.13;;;2.97;;
83429;SDS011;73362;50.952;6.952;2024-02-14T14:36:25;1.60;;;1.40;;
83429;SDS011;73362;50.952;6.952;2024-02-14T14:38:53;4.40;;;2.17;;
83429;SDS011;73362;50.952;6.952;2024-02-14T14:41:21;4.17;;;2.13;;
83429;SDS011;73362;50.952;6.952;2024-02-14T14:43:49;2.50;;;1.37;;
83429;SDS011;73362;50.952;6.952;2024-02-14T14:46:17;1.93;;;1.40;;
83429;SDS011;73362;50.952;6.952;2024-02-14T14:48:46;1.67;;;1.33;;
83429;SDS011;73362;50.952;6.952;2024-02-14T14:51:14;1.70;;;1.30;;
83429;SDS011;73362;50.952;6.952;2024-02-14T14:53:42;2.90;;;1.70;;
83429;SDS011;73362;50.952;6.952;2024-02-14T14:56:10;3.90;;;1.70;;
83429;SDS011;73362;50.952;6.952;2024-02-14T14:58:38;5.47;;;1.97;;
83429;SDS011;73362;50.952;6.952;2024-02-14T15:01:06;2.03;;;1.40;;